sensor_id;sensor_type;location;lat;lon;timestamp;temperature;humidity
7192;DHT22;3637;51.494;11.958;2023-03-24T00:00:59;13.30;99.90
7192;DHT22;3637;51.494;11.958;2023-03-24T00:04:01;13.00;99.90
7192;DHT22;3637;51.494;11.958;2023-03-24T00:07:03;12.70;99.90
7192;DHT22;3637;51.494;11.958;2023-03-24T00:10:07;12.70;99.90
7192;DHT22;3637;51.494;11.958;2023-03-24T00:13:09;12.70;99.90
7192;DHT22;3637;51.494;11.958;2023-03-24T00:16:13;12.70;99.90
7192;DHT22;3637;51.494;11.958;2023-03-24T00:19:18;12.90;99.90
7192;DHT22;3637;51.494;11.958;2023-03-24T00:22:22;12.70;99.90
7192;DHT22;3637;51.494;11.958;2023-03-24T00:25:25;12.80;99.90
7192;DHT22;3637;51.494;11.958;2023-03-24T00:28:29;12.70;99.90
7192;DHT22;3637;51.494;11.958;2023-03-24T00:31:34;12.70;99.90
7192;DHT22;3637;51.494;11.958;2023-03-24T00:34:39;12.60;99.90
7192;DHT22;3637;51.494;11.958;2023-03-24T00:37:42;12.90;99.90
7192;DHT22;3637;51.494;11.958;2023-03-24T00:40:45;12.30;99.90
7192;DHT22;3637;51.494;11.958;2023-03-24T00:43:48;12.60;99.90
7192;DHT22;3637;51.494;11.958;2023-03-24T00:46:52;12.60;99.90
7192;DHT22;3637;51.494;11.958;2023-03-24T00:49:55;13.20;99.90
7192;DHT22;3637;51.494;11.958;2023-03-24T00:53:00;12.50;99.90
7192;DHT22;3637;51.494;11.958;2023-03-24T00:56:03;12.80;99.90
7192;DHT22;3637;51.494;11.958;2023-03-24T00:59:05;12.50;99.90
7192;DHT22;3637;51.494;11.958;2023-03-24T01:02:11;12.40;99.90
7192;DHT22;3637;51.494;11.958;2023-03-24T01:05:15;12.50;99.90
7192;DHT22;3637;51.494;11.958;2023-03-24T01:08:17;12.60;99.90
7192;DHT22;3637;51.494;11.958;2023-03-24T01:11:20;12.60;99.90
7192;DHT22;3637;51.494;11.958;2023-03-24T01:14:23;12.60;99.90
7192;DHT22;3637;51.494;11.958;2023-03-24T01:17:27;12.50;99.90
7192;DHT22;3637;51.494;11.958;2023-03-24T01:20:29;12.60;99.90
7192;DHT22;3637;51.494;11.958;2023-03-24T01:23:32;13.70;99.90
7192;DHT22;3637;51.494;11.958;2023-03-24T01:26:34;12.60;99.90
7192;DHT22;3637;51.494;11.958;2023-03-24T01:29:36;14.10;99.90
7192;DHT22;3637;51.494;11.958;2023-03-24T01:32:39;12.60;99.90
7192;DHT22;3637;51.494;11.958;2023-03-24T01:35:41;12.50;99.90
7192;DHT22;3637;51.494;11.958;2023-03-24T01:38:46;12.90;99.90
7192;DHT22;3637;51.494;11.958;2023-03-24T01:41:48;13.00;99.90
7192;DHT22;3637;51.494;11.958;2023-03-24T01:44:56;12.50;99.90
7192;DHT22;3637;51.494;11.958;2023-03-24T01:48:03;13.20;99.90
7192;DHT22;3637;51.494;11.958;2023-03-24T01:51:09;12.70;99.90
7192;DHT22;3637;51.494;11.958;2023-03-24T01:54:21;12.50;99.90
7192;DHT22;3637;51.494;11.958;2023-03-24T01:57:25;12.10;99.90
7192;DHT22;3637;51.494;11.958;2023-03-24T02:00:29;12.50;99.90
7192;DHT22;3637;51.494;11.958;2023-03-24T02:03:33;13.80;99.90
7192;DHT22;3637;51.494;11.958;2023-03-24T02:06:40;12.40;99.90
7192;DHT22;3637;51.494;11.958;2023-03-24T02:09:43;12.40;99.90
7192;DHT22;3637;51.494;11.958;2023-03-24T02:12:45;12.40;99.90
7192;DHT22;3637;51.494;11.958;2023-03-24T02:15:58;12.60;99.90
7192;DHT22;3637;51.494;11.958;2023-03-24T02:23:14;12.40;99.90
7192;DHT22;3637;51.494;11.958;2023-03-24T02:26:46;12.40;99.90
7192;DHT22;3637;51.494;11.958;2023-03-24T02:30:02;12.40;99.90
7192;DHT22;3637;51.494;11.958;2023-03-24T02:33:42;12.50;99.90
7192;DHT22;3637;51.494;11.958;2023-03-24T02:37:11;12.40;99.90
7192;DHT22;3637;51.494;11.958;2023-03-24T02:40:27;12.40;99.90
7192;DHT22;3637;51.494;11.958;2023-03-24T02:43:39;12.40;99.90
7192;DHT22;3637;51.494;11.958;2023-03-24T02:46:47;12.40;99.90
7192;DHT22;3637;51.494;11.958;2023-03-24T02:49:55;12.70;99.90
7192;DHT22;3637;51.494;11.958;2023-03-24T02:53:04;12.60;99.90
7192;DHT22;3637;51.494;11.958;2023-03-24T02:56:12;12.50;99.90
7192;DHT22;3637;51.494;11.958;2023-03-24T02:59:18;12.20;99.90
7192;DHT22;3637;51.494;11.958;2023-03-24T03:02:25;12.20;99.90
7192;DHT22;3637;51.494;11.958;2023-03-24T03:05:32;13.40;99.90
7192;DHT22;3637;51.494;11.958;2023-03-24T03:08:35;12.40;99.90
7192;DHT22;3637;51.494;11.958;2023-03-24T03:11:40;12.10;99.90
7192;DHT22;3637;51.494;11.958;2023-03-24T03:14:47;12.20;99.90
7192;DHT22;3637;51.494;11.958;2023-03-24T03:17:52;12.30;99.90
7192;DHT22;3637;51.494;11.958;2023-03-24T03:21:00;12.40;99.90
7192;DHT22;3637;51.494;11.958;2023-03-24T03:24:07;12.30;99.90
7192;DHT22;3637;51.494;11.958;2023-03-24T03:27:15;12.30;99.90
7192;DHT22;3637;51.494;11.958;2023-03-24T03:30:22;12.30;99.90
7192;DHT22;3637;51.494;11.958;2023-03-24T03:33:31;12.10;99.90
7192;DHT22;3637;51.494;11.958;2023-03-24T03:36:40;11.90;99.90
7192;DHT22;3637;51.494;11.958;2023-03-24T03:39:46;12.30;99.90
7192;DHT22;3637;51.494;11.958;2023-03-24T03:42:52;12.70;99.90
7192;DHT22;3637;51.494;11.958;2023-03-24T03:46:04;12.00;99.90
7192;DHT22;3637;51.494;11.958;2023-03-24T03:49:07;12.00;99.90
7192;DHT22;3637;51.494;11.958;2023-03-24T03:52:09;12.40;99.90
7192;DHT22;3637;51.494;11.958;2023-03-24T03:55:11;13.00;99.90
7192;DHT22;3637;51.494;11.958;2023-03-24T03:58:14;12.10;99.90
7192;DHT22;3637;51.494;11.958;2023-03-24T04:01:20;12.50;99.90
7192;DHT22;3637;51.494;11.958;2023-03-24T04:04:45;12.20;99.90
7192;DHT22;3637;51.494;11.958;2023-03-24T04:08:06;12.40;99.90
7192;DHT22;3637;51.494;11.958;2023-03-24T04:11:29;12.40;99.90
7192;DHT22;3637;51.494;11.958;2023-03-24T04:14:53;12.70;99.90
7192;DHT22;3637;51.494;11.958;2023-03-24T04:18:08;12.80;99.90
7192;DHT22;3637;51.494;11.958;2023-03-24T04:21:26;12.60;99.90
7192;DHT22;3637;51.494;11.958;2023-03-24T04:24:42;12.50;99.90
7192;DHT22;3637;51.494;11.958;2023-03-24T04:27:54;13.10;99.90
7192;DHT22;3637;51.494;11.958;2023-03-24T04:31:05;12.50;99.90
7192;DHT22;3637;51.494;11.958;2023-03-24T04:34:19;12.50;99.90
7192;DHT22;3637;51.494;11.958;2023-03-24T04:37:29;12.80;99.90
7192;DHT22;3637;51.494;11.958;2023-03-24T04:40:33;12.50;99.90
7192;DHT22;3637;51.494;11.958;2023-03-24T04:43:36;12.60;99.90
7192;DHT22;3637;51.494;11.958;2023-03-24T04:46:40;12.60;99.90
7192;DHT22;3637;51.494;11.958;2023-03-24T04:49:42;12.60;99.90
7192;DHT22;3637;51.494;11.958;2023-03-24T04:52:44;12.60;99.90
7192;DHT22;3637;51.494;11.958;2023-03-24T04:55:57;12.90;99.90
7192;DHT22;3637;51.494;11.958;2023-03-24T04:59:01;13.10;99.90
7192;DHT22;3637;51.494;11.958;2023-03-24T05:02:05;12.60;99.90
7192;DHT22;3637;51.494;11.958;2023-03-24T05:05:07;12.70;99.90
7192;DHT22;3637;51.494;11.958;2023-03-24T05:08:10;12.70;99.90
7192;DHT22;3637;51.494;11.958;2023-03-24T05:11:12;12.70;99.90
7192;DHT22;3637;51.494;11.958;2023-03-24T05:14:14;12.70;99.90
7192;DHT22;3637;51.494;11.958;2023-03-24T05:17:17;12.70;99.90
7192;DHT22;3637;51.494;11.958;2023-03-24T05:20:19;12.50;99.90
7192;DHT22;3637;51.494;11.958;2023-03-24T05:23:21;12.70;99.90
7192;DHT22;3637;51.494;11.958;2023-03-24T05:26:23;12.60;99.90
7192;DHT22;3637;51.494;11.958;2023-03-24T05:29:26;12.90;99.90
7192;DHT22;3637;51.494;11.958;2023-03-24T05:32:29;12.70;99.90
7192;DHT22;3637;51.494;11.958;2023-03-24T05:35:31;13.00;99.90
7192;DHT22;3637;51.494;11.958;2023-03-24T05:38:32;12.80;99.90
7192;DHT22;3637;51.494;11.958;2023-03-24T05:41:34;12.80;99.90
7192;DHT22;3637;51.494;11.958;2023-03-24T05:44:36;13.20;99.90
7192;DHT22;3637;51.494;11.958;2023-03-24T05:47:39;12.80;99.90
7192;DHT22;3637;51.494;11.958;2023-03-24T05:50:41;12.90;99.90
7192;DHT22;3637;51.494;11.958;2023-03-24T05:53:43;12.90;99.90
7192;DHT22;3637;51.494;11.958;2023-03-24T05:56:45;13.10;99.90
7192;DHT22;3637;51.494;11.958;2023-03-24T05:59:46;12.90;99.90
7192;DHT22;3637;51.494;11.958;2023-03-24T06:02:49;14.40;99.90
7192;DHT22;3637;51.494;11.958;2023-03-24T06:05:51;13.00;99.90
7192;DHT22;3637;51.494;11.958;2023-03-24T06:08:53;13.80;99.90
7192;DHT22;3637;51.494;11.958;2023-03-24T06:11:57;13.00;99.90
7192;DHT22;3637;51.494;11.958;2023-03-24T06:14:59;13.00;99.90
7192;DHT22;3637;51.494;11.958;2023-03-24T06:18:03;13.00;99.90
7192;DHT22;3637;51.494;11.958;2023-03-24T06:21:05;13.00;99.90
7192;DHT22;3637;51.494;11.958;2023-03-24T06:24:07;13.00;99.90
7192;DHT22;3637;51.494;11.958;2023-03-24T06:27:10;12.80;99.90
7192;DHT22;3637;51.494;11.958;2023-03-24T06:30:15;13.10;99.90
7192;DHT22;3637;51.494;11.958;2023-03-24T06:33:18;13.10;99.90
7192;DHT22;3637;51.494;11.958;2023-03-24T06:36:26;13.70;99.90
7192;DHT22;3637;51.494;11.958;2023-03-24T06:39:28;13.10;99.90
7192;DHT22;3637;51.494;11.958;2023-03-24T06:42:30;13.60;99.90
7192;DHT22;3637;51.494;11.958;2023-03-24T06:45:32;12.90;99.90
7192;DHT22;3637;51.494;11.958;2023-03-24T06:48:35;13.20;99.90
7192;DHT22;3637;51.494;11.958;2023-03-24T06:51:41;14.00;99.90
7192;DHT22;3637;51.494;11.958;2023-03-24T06:54:46;13.30;99.90
7192;DHT22;3637;51.494;11.958;2023-03-24T06:57:48;13.30;99.90
7192;DHT22;3637;51.494;11.958;2023-03-24T07:00:50;13.30;99.90
7192;DHT22;3637;51.494;11.958;2023-03-24T07:03:59;13.30;99.90
7192;DHT22;3637;51.494;11.958;2023-03-24T07:07:01;13.30;99.90
7192;DHT22;3637;51.494;11.958;2023-03-24T07:10:03;14.00;99.90
7192;DHT22;3637;51.494;11.958;2023-03-24T07:13:06;13.20;99.90
7192;DHT22;3637;51.494;11.958;2023-03-24T07:16:21;14.60;99.90
7192;DHT22;3637;51.494;11.958;2023-03-24T07:19:43;13.70;99.90
7192;DHT22;3637;51.494;11.958;2023-03-24T07:22:50;12.70;99.90
7192;DHT22;3637;51.494;11.958;2023-03-24T07:25:57;12.80;99.90
7192;DHT22;3637;51.494;11.958;2023-03-24T07:28:59;13.80;99.90
7192;DHT22;3637;51.494;11.958;2023-03-24T07:32:04;14.80;99.90
7192;DHT22;3637;51.494;11.958;2023-03-24T07:35:16;13.80;99.90
7192;DHT22;3637;51.494;11.958;2023-03-24T07:38:18;13.60;99.90
7192;DHT22;3637;51.494;11.958;2023-03-24T07:41:20;13.70;99.90
7192;DHT22;3637;51.494;11.958;2023-03-24T07:44:24;13.80;99.90
7192;DHT22;3637;51.494;11.958;2023-03-24T07:47:26;13.80;99.90
7192;DHT22;3637;51.494;11.958;2023-03-24T07:50:30;13.90;99.90
7192;DHT22;3637;51.494;11.958;2023-03-24T07:53:32;14.40;99.90
7192;DHT22;3637;51.494;11.958;2023-03-24T07:56:38;14.10;99.90
7192;DHT22;3637;51.494;11.958;2023-03-24T07:59:41;14.00;99.90
7192;DHT22;3637;51.494;11.958;2023-03-24T08:02:49;14.30;99.90
7192;DHT22;3637;51.494;11.958;2023-03-24T08:05:53;14.00;99.90
7192;DHT22;3637;51.494;11.958;2023-03-24T08:08:55;14.10;99.90
7192;DHT22;3637;51.494;11.958;2023-03-24T08:12:00;14.20;99.90
7192;DHT22;3637;51.494;11.958;2023-03-24T08:15:04;14.70;99.90
7192;DHT22;3637;51.494;11.958;2023-03-24T08:18:07;14.30;99.90
7192;DHT22;3637;51.494;11.958;2023-03-24T08:21:10;14.40;99.90
7192;DHT22;3637;51.494;11.958;2023-03-24T08:24:12;15.00;99.90
7192;DHT22;3637;51.494;11.958;2023-03-24T08:27:14;14.60;99.90
7192;DHT22;3637;51.494;11.958;2023-03-24T08:30:18;14.70;99.90
7192;DHT22;3637;51.494;11.958;2023-03-24T08:33:20;14.80;99.90
7192;DHT22;3637;51.494;11.958;2023-03-24T08:36:24;14.80;99.90
7192;DHT22;3637;51.494;11.958;2023-03-24T08:39:26;14.70;99.90
7192;DHT22;3637;51.494;11.958;2023-03-24T08:42:27;15.60;99.90
7192;DHT22;3637;51.494;11.958;2023-03-24T08:45:31;15.10;99.90
7192;DHT22;3637;51.494;11.958;2023-03-24T08:48:35;15.20;99.90
7192;DHT22;3637;51.494;11.958;2023-03-24T08:51:42;15.30;99.90
7192;DHT22;3637;51.494;11.958;2023-03-24T08:54:44;15.30;99.90
7192;DHT22;3637;51.494;11.958;2023-03-24T08:57:48;15.30;99.90
7192;DHT22;3637;51.494;11.958;2023-03-24T09:00:51;15.30;99.90
7192;DHT22;3637;51.494;11.958;2023-03-24T09:03:52;15.30;99.90
7192;DHT22;3637;51.494;11.958;2023-03-24T09:06:56;15.60;99.90
7192;DHT22;3637;51.494;11.958;2023-03-24T09:09:59;15.80;99.90
7192;DHT22;3637;51.494;11.958;2023-03-24T09:13:01;15.60;99.90
7192;DHT22;3637;51.494;11.958;2023-03-24T09:16:04;15.60;99.90
7192;DHT22;3637;51.494;11.958;2023-03-24T09:19:06;15.60;99.90
7192;DHT22;3637;51.494;11.958;2023-03-24T09:22:10;15.70;99.90
7192;DHT22;3637;51.494;11.958;2023-03-24T09:25:15;16.00;99.90
7192;DHT22;3637;51.494;11.958;2023-03-24T09:28:17;15.80;99.90
7192;DHT22;3637;51.494;11.958;2023-03-24T09:31:19;15.80;99.90
7192;DHT22;3637;51.494;11.958;2023-03-24T09:34:21;15.80;99.90
7192;DHT22;3637;51.494;11.958;2023-03-24T09:37:27;16.10;99.90
7192;DHT22;3637;51.494;11.958;2023-03-24T09:40:30;16.20;99.90
7192;DHT22;3637;51.494;11.958;2023-03-24T09:43:37;15.90;99.90
7192;DHT22;3637;51.494;11.958;2023-03-24T09:46:45;16.20;99.90
7192;DHT22;3637;51.494;11.958;2023-03-24T09:49:47;16.90;99.90
7192;DHT22;3637;51.494;11.958;2023-03-24T09:52:53;16.00;99.90
7192;DHT22;3637;51.494;11.958;2023-03-24T09:55:59;17.20;99.90
7192;DHT22;3637;51.494;11.958;2023-03-24T09:59:05;16.50;99.90
7192;DHT22;3637;51.494;11.958;2023-03-24T10:02:11;16.00;99.90
7192;DHT22;3637;51.494;11.958;2023-03-24T10:05:16;16.00;99.90
7192;DHT22;3637;51.494;11.958;2023-03-24T10:08:25;15.80;99.90
7192;DHT22;3637;51.494;11.958;2023-03-24T10:11:34;15.80;99.90
7192;DHT22;3637;51.494;11.958;2023-03-24T10:14:51;15.50;99.90
7192;DHT22;3637;51.494;11.958;2023-03-24T10:17:58;14.70;99.90
7192;DHT22;3637;51.494;11.958;2023-03-24T10:21:09;15.20;99.90
7192;DHT22;3637;51.494;11.958;2023-03-24T10:24:48;14.20;99.90
7192;DHT22;3637;51.494;11.958;2023-03-24T10:28:00;13.70;99.90
7192;DHT22;3637;51.494;11.958;2023-03-24T10:31:10;14.10;99.90
7192;DHT22;3637;51.494;11.958;2023-03-24T10:34:16;14.00;99.90
7192;DHT22;3637;51.494;11.958;2023-03-24T10:37:18;13.90;99.90
7192;DHT22;3637;51.494;11.958;2023-03-24T10:40:25;13.50;99.90
7192;DHT22;3637;51.494;11.958;2023-03-24T10:43:28;13.90;99.90
7192;DHT22;3637;51.494;11.958;2023-03-24T10:46:31;13.30;99.90
7192;DHT22;3637;51.494;11.958;2023-03-24T10:49:33;13.60;99.90
7192;DHT22;3637;51.494;11.958;2023-03-24T10:52:38;13.70;99.90
7192;DHT22;3637;51.494;11.958;2023-03-24T10:55:42;14.10;99.90
7192;DHT22;3637;51.494;11.958;2023-03-24T10:58:45;13.90;99.90
7192;DHT22;3637;51.494;11.958;2023-03-24T11:01:48;13.40;99.90
7192;DHT22;3637;51.494;11.958;2023-03-24T11:04:56;13.60;99.90
7192;DHT22;3637;51.494;11.958;2023-03-24T11:08:13;13.50;99.90
7192;DHT22;3637;51.494;11.958;2023-03-24T11:11:30;13.60;99.90
7192;DHT22;3637;51.494;11.958;2023-03-24T11:14:32;13.90;99.90
7192;DHT22;3637;51.494;11.958;2023-03-24T11:17:34;13.90;99.90
7192;DHT22;3637;51.494;11.958;2023-03-24T11:20:38;14.10;99.90
7192;DHT22;3637;51.494;11.958;2023-03-24T11:23:42;13.90;99.90
7192;DHT22;3637;51.494;11.958;2023-03-24T11:26:50;14.40;99.90
7192;DHT22;3637;51.494;11.958;2023-03-24T11:29:54;13.70;99.90
7192;DHT22;3637;51.494;11.958;2023-03-24T11:32:57;14.80;99.90
7192;DHT22;3637;51.494;11.958;2023-03-24T11:35:59;14.00;99.90
7192;DHT22;3637;51.494;11.958;2023-03-24T11:39:08;13.90;99.90
7192;DHT22;3637;51.494;11.958;2023-03-24T11:42:16;14.00;99.90
7192;DHT22;3637;51.494;11.958;2023-03-24T11:45:27;14.10;99.90
7192;DHT22;3637;51.494;11.958;2023-03-24T11:48:34;15.40;99.90
7192;DHT22;3637;51.494;11.958;2023-03-24T11:51:41;14.10;99.90
7192;DHT22;3637;51.494;11.958;2023-03-24T11:55:03;14.00;99.90
7192;DHT22;3637;51.494;11.958;2023-03-24T11:58:16;14.20;99.90
7192;DHT22;3637;51.494;11.958;2023-03-24T12:01:25;14.50;99.90
7192;DHT22;3637;51.494;11.958;2023-03-24T12:04:56;14.10;99.90
7192;DHT22;3637;51.494;11.958;2023-03-24T12:08:21;14.00;99.90
7192;DHT22;3637;51.494;11.958;2023-03-24T12:11:36;14.10;99.90
7192;DHT22;3637;51.494;11.958;2023-03-24T12:14:52;15.10;99.90
7192;DHT22;3637;51.494;11.958;2023-03-24T12:18:10;14.20;99.90
7192;DHT22;3637;51.494;11.958;2023-03-24T12:21:26;14.20;99.90
7192;DHT22;3637;51.494;11.958;2023-03-24T12:32:02;14.10;99.90
7192;DHT22;3637;51.494;11.958;2023-03-24T12:38:55;14.00;99.90
7192;DHT22;3637;51.494;11.958;2023-03-24T12:42:06;14.00;99.90
7192;DHT22;3637;51.494;11.958;2023-03-24T12:45:26;13.90;99.90
7192;DHT22;3637;51.494;11.958;2023-03-24T12:49:04;13.90;99.90
7192;DHT22;3637;51.494;11.958;2023-03-24T12:52:17;13.80;99.90
7192;DHT22;3637;51.494;11.958;2023-03-24T12:55:29;13.70;99.90
7192;DHT22;3637;51.494;11.958;2023-03-24T12:58:38;13.70;99.90
7192;DHT22;3637;51.494;11.958;2023-03-24T13:01:45;13.60;99.90
7192;DHT22;3637;51.494;11.958;2023-03-24T13:04:50;13.60;99.90
7192;DHT22;3637;51.494;11.958;2023-03-24T13:07:59;13.70;99.90
7192;DHT22;3637;51.494;11.958;2023-03-24T13:11:05;13.80;99.90
7192;DHT22;3637;51.494;11.958;2023-03-24T13:14:13;13.70;99.90
7192;DHT22;3637;51.494;11.958;2023-03-24T13:17:21;13.90;99.90
7192;DHT22;3637;51.494;11.958;2023-03-24T13:20:30;13.90;99.90
7192;DHT22;3637;51.494;11.958;2023-03-24T13:23:40;13.80;99.90
7192;DHT22;3637;51.494;11.958;2023-03-24T13:26:52;14.00;99.90
7192;DHT22;3637;51.494;11.958;2023-03-24T13:30:17;14.00;99.90
7192;DHT22;3637;51.494;11.958;2023-03-24T13:33:27;14.00;99.90
7192;DHT22;3637;51.494;11.958;2023-03-24T13:36:41;14.00;99.90
7192;DHT22;3637;51.494;11.958;2023-03-24T13:39:45;15.50;99.90
7192;DHT22;3637;51.494;11.958;2023-03-24T13:42:52;14.00;99.90
7192;DHT22;3637;51.494;11.958;2023-03-24T13:45:58;14.00;99.90
7192;DHT22;3637;51.494;11.958;2023-03-24T13:49:04;14.10;99.90
7192;DHT22;3637;51.494;11.958;2023-03-24T13:52:24;14.10;99.90
7192;DHT22;3637;51.494;11.958;2023-03-24T13:55:28;14.40;99.90
7192;DHT22;3637;51.494;11.958;2023-03-24T13:58:50;14.70;99.90
7192;DHT22;3637;51.494;11.958;2023-03-24T14:02:21;14.60;99.90
7192;DHT22;3637;51.494;11.958;2023-03-24T14:05:40;14.70;99.90
7192;DHT22;3637;51.494;11.958;2023-03-24T14:08:54;14.50;99.90
7192;DHT22;3637;51.494;11.958;2023-03-24T14:12:22;14.70;99.90
7192;DHT22;3637;51.494;11.958;2023-03-24T14:15:26;14.30;99.90
7192;DHT22;3637;51.494;11.958;2023-03-24T14:18:39;14.20;99.90
7192;DHT22;3637;51.494;11.958;2023-03-24T14:21:51;14.10;99.90
7192;DHT22;3637;51.494;11.958;2023-03-24T14:24:58;14.30;99.90
7192;DHT22;3637;51.494;11.958;2023-03-24T14:28:17;15.80;99.90
7192;DHT22;3637;51.494;11.958;2023-03-24T14:31:22;14.90;99.90
7192;DHT22;3637;51.494;11.958;2023-03-24T14:34:26;14.60;99.90
7192;DHT22;3637;51.494;11.958;2023-03-24T14:37:29;15.50;99.90
7192;DHT22;3637;51.494;11.958;2023-03-24T14:40:36;14.60;99.90
7192;DHT22;3637;51.494;11.958;2023-03-24T14:43:53;14.50;99.90
7192;DHT22;3637;51.494;11.958;2023-03-24T14:46:59;14.60;99.90
7192;DHT22;3637;51.494;11.958;2023-03-24T14:50:11;14.70;99.90
7192;DHT22;3637;51.494;11.958;2023-03-24T14:53:17;14.60;99.90
7192;DHT22;3637;51.494;11.958;2023-03-24T14:56:21;14.20;99.90
7192;DHT22;3637;51.494;11.958;2023-03-24T14:59:38;14.90;99.90
7192;DHT22;3637;51.494;11.958;2023-03-24T15:02:45;16.00;99.90
7192;DHT22;3637;51.494;11.958;2023-03-24T15:06:07;14.60;99.90
7192;DHT22;3637;51.494;11.958;2023-03-24T15:09:14;14.70;99.90
7192;DHT22;3637;51.494;11.958;2023-03-24T15:12:18;14.50;99.90
7192;DHT22;3637;51.494;11.958;2023-03-24T15:15:24;14.80;99.90
7192;DHT22;3637;51.494;11.958;2023-03-24T15:18:26;14.90;99.90
7192;DHT22;3637;51.494;11.958;2023-03-24T15:21:32;15.00;99.90
7192;DHT22;3637;51.494;11.958;2023-03-24T15:24:35;14.70;99.90
7192;DHT22;3637;51.494;11.958;2023-03-24T15:27:39;15.30;99.90
7192;DHT22;3637;51.494;11.958;2023-03-24T15:30:41;15.90;99.90
7192;DHT22;3637;51.494;11.958;2023-03-24T15:33:43;15.10;99.90
7192;DHT22;3637;51.494;11.958;2023-03-24T15:36:52;14.60;99.90
7192;DHT22;3637;51.494;11.958;2023-03-24T15:39:54;15.00;99.90
7192;DHT22;3637;51.494;11.958;2023-03-24T15:43:01;14.40;99.90
7192;DHT22;3637;51.494;11.958;2023-03-24T15:46:03;14.60;99.90
7192;DHT22;3637;51.494;11.958;2023-03-24T15:49:18;14.50;99.90
7192;DHT22;3637;51.494;11.958;2023-03-24T15:52:29;14.60;99.90
7192;DHT22;3637;51.494;11.958;2023-03-24T15:55:33;14.20;99.90
7192;DHT22;3637;51.494;11.958;2023-03-24T15:58:50;14.50;99.90
7192;DHT22;3637;51.494;11.958;2023-03-24T16:01:55;14.50;99.90
7192;DHT22;3637;51.494;11.958;2023-03-24T16:04:59;14.50;99.90
7192;DHT22;3637;51.494;11.958;2023-03-24T16:08:05;13.80;99.90
7192;DHT22;3637;51.494;11.958;2023-03-24T16:11:09;14.40;99.90
7192;DHT22;3637;51.494;11.958;2023-03-24T16:14:20;14.40;99.90
7192;DHT22;3637;51.494;11.958;2023-03-24T16:17:23;14.70;99.90
7192;DHT22;3637;51.494;11.958;2023-03-24T16:20:26;15.10;99.90
7192;DHT22;3637;51.494;11.958;2023-03-24T16:23:28;14.20;99.90
7192;DHT22;3637;51.494;11.958;2023-03-24T16:26:33;14.20;99.90
7192;DHT22;3637;51.494;11.958;2023-03-24T16:29:37;14.40;99.90
7192;DHT22;3637;51.494;11.958;2023-03-24T16:32:40;14.50;99.90
7192;DHT22;3637;51.494;11.958;2023-03-24T16:35:41;14.30;99.90
7192;DHT22;3637;51.494;11.958;2023-03-24T16:38:44;14.00;99.90
7192;DHT22;3637;51.494;11.958;2023-03-24T16:41:48;13.70;99.90
7192;DHT22;3637;51.494;11.958;2023-03-24T16:44:51;14.20;99.90
7192;DHT22;3637;51.494;11.958;2023-03-24T16:47:53;13.90;99.90
7192;DHT22;3637;51.494;11.958;2023-03-24T16:50:55;13.90;99.90
7192;DHT22;3637;51.494;11.958;2023-03-24T16:53:59;13.90;99.90
7192;DHT22;3637;51.494;11.958;2023-03-24T16:57:01;13.90;99.90
7192;DHT22;3637;51.494;11.958;2023-03-24T17:00:06;14.40;99.90
7192;DHT22;3637;51.494;11.958;2023-03-24T17:03:11;13.90;99.90
7192;DHT22;3637;51.494;11.958;2023-03-24T17:06:13;13.90;99.90
7192;DHT22;3637;51.494;11.958;2023-03-24T17:09:16;13.90;99.90
7192;DHT22;3637;51.494;11.958;2023-03-24T17:12:21;13.90;99.90
7192;DHT22;3637;51.494;11.958;2023-03-24T17:15:26;13.90;99.90
7192;DHT22;3637;51.494;11.958;2023-03-24T17:18:30;14.00;99.90
7192;DHT22;3637;51.494;11.958;2023-03-24T17:21:36;15.20;99.90
7192;DHT22;3637;51.494;11.958;2023-03-24T17:24:39;13.30;99.90
7192;DHT22;3637;51.494;11.958;2023-03-24T17:27:41;13.60;99.90
7192;DHT22;3637;51.494;11.958;2023-03-24T17:30:45;13.90;99.90
7192;DHT22;3637;51.494;11.958;2023-03-24T17:33:46;13.40;99.90
7192;DHT22;3637;51.494;11.958;2023-03-24T17:36:48;13.50;99.90
7192;DHT22;3637;51.494;11.958;2023-03-24T17:39:51;13.50;99.90
7192;DHT22;3637;51.494;11.958;2023-03-24T17:42:55;13.80;99.90
7192;DHT22;3637;51.494;11.958;2023-03-24T17:45:58;13.50;99.90
7192;DHT22;3637;51.494;11.958;2023-03-24T17:49:00;13.40;99.90
7192;DHT22;3637;51.494;11.958;2023-03-24T17:52:02;13.40;99.90
7192;DHT22;3637;51.494;11.958;2023-03-24T17:55:05;14.20;99.90
7192;DHT22;3637;51.494;11.958;2023-03-24T17:58:07;13.20;99.90
7192;DHT22;3637;51.494;11.958;2023-03-24T18:01:11;13.20;99.90
7192;DHT22;3637;51.494;11.958;2023-03-24T18:04:14;13.30;99.90
7192;DHT22;3637;51.494;11.958;2023-03-24T18:07:18;13.20;99.90
7192;DHT22;3637;51.494;11.958;2023-03-24T18:10:20;13.10;99.90
7192;DHT22;3637;51.494;11.958;2023-03-24T18:13:22;13.00;99.90
7192;DHT22;3637;51.494;11.958;2023-03-24T18:16:27;13.10;99.90
7192;DHT22;3637;51.494;11.958;2023-03-24T18:19:30;12.90;99.90
7192;DHT22;3637;51.494;11.958;2023-03-24T18:22:32;12.90;99.90
7192;DHT22;3637;51.494;11.958;2023-03-24T18:25:36;12.80;99.90
7192;DHT22;3637;51.494;11.958;2023-03-24T18:28:38;13.00;99.90
7192;DHT22;3637;51.494;11.958;2023-03-24T18:31:42;12.60;99.90
7192;DHT22;3637;51.494;11.958;2023-03-24T18:34:44;12.60;99.90
7192;DHT22;3637;51.494;11.958;2023-03-24T18:37:46;12.50;99.90
7192;DHT22;3637;51.494;11.958;2023-03-24T18:40:56;12.50;99.90
7192;DHT22;3637;51.494;11.958;2023-03-24T18:43:58;12.70;99.90
7192;DHT22;3637;51.494;11.958;2023-03-24T18:47:01;12.50;99.90
7192;DHT22;3637;51.494;11.958;2023-03-24T18:50:04;12.40;99.90
7192;DHT22;3637;51.494;11.958;2023-03-24T18:53:06;12.40;99.90
7192;DHT22;3637;51.494;11.958;2023-03-24T18:56:09;12.30;99.90
7192;DHT22;3637;51.494;11.958;2023-03-24T18:59:11;12.30;99.90
7192;DHT22;3637;51.494;11.958;2023-03-24T19:02:18;12.20;99.90
7192;DHT22;3637;51.494;11.958;2023-03-24T19:05:20;12.30;99.90
7192;DHT22;3637;51.494;11.958;2023-03-24T19:08:22;12.20;99.90
7192;DHT22;3637;51.494;11.958;2023-03-24T19:11:23;12.10;99.90
7192;DHT22;3637;51.494;11.958;2023-03-24T19:14:25;12.10;99.90
7192;DHT22;3637;51.494;11.958;2023-03-24T19:17:29;12.20;99.90
7192;DHT22;3637;51.494;11.958;2023-03-24T19:20:32;12.00;99.90
7192;DHT22;3637;51.494;11.958;2023-03-24T19:23:34;12.20;99.90
7192;DHT22;3637;51.494;11.958;2023-03-24T19:26:36;12.40;99.90
7192;DHT22;3637;51.494;11.958;2023-03-24T19:29:38;12.20;99.90
7192;DHT22;3637;51.494;11.958;2023-03-24T19:32:44;12.00;99.90
7192;DHT22;3637;51.494;11.958;2023-03-24T19:35:47;12.00;99.90
7192;DHT22;3637;51.494;11.958;2023-03-24T19:38:49;12.60;99.90
7192;DHT22;3637;51.494;11.958;2023-03-24T19:41:51;12.00;99.90
7192;DHT22;3637;51.494;11.958;2023-03-24T19:44:52;12.90;99.90
7192;DHT22;3637;51.494;11.958;2023-03-24T19:47:56;12.80;99.90
7192;DHT22;3637;51.494;11.958;2023-03-24T19:50:58;12.10;99.90
7192;DHT22;3637;51.494;11.958;2023-03-24T19:53:59;12.00;99.90
7192;DHT22;3637;51.494;11.958;2023-03-24T19:57:04;13.00;99.90
7192;DHT22;3637;51.494;11.958;2023-03-24T20:00:08;11.90;99.90
7192;DHT22;3637;51.494;11.958;2023-03-24T20:03:12;11.10;99.90
7192;DHT22;3637;51.494;11.958;2023-03-24T20:06:14;10.60;99.90
7192;DHT22;3637;51.494;11.958;2023-03-24T20:09:16;10.30;99.90